Time;durP1;ratioP1;P1;durP2;ratioP2;P2;SDS_P1;SDS_P2;PMS_P1;PMS_P2;Temp;Humidity;BMP_temperature;BMP_pressure;BME280_temperature;BME280_humidity;BME280_pressure;Samples;Min_cycle;Max_cycle;Signal;HPM_P1;HPM_P2
2021/11/05 00:07:53;;;;;;;75.03;15.70;;;;;;;;;;5492022;22;20495;-96
2021/11/05 00:10:21;;;;;;;76.67;16.77;;;;;;;;;;5038337;28;20452;-94
2021/11/05 00:12:48;;;;;;;74.77;17.13;;;;;;;;;;5038447;28;20474;-95
2021/11/05 00:15:14;;;;;;;77.33;16.30;;;;;;;;;;5038002;28;20435;-94
2021/11/05 00:17:41;;;;;;;75.83;17.53;;;;;;;;;;5039054;28;20501;-93
2021/11/05 00:20:10;;;;;;;76.20;17.50;;;;;;;;;;5042918;28;20459;-96
2021/11/05 00:22:36;;;;;;;78.60;17.13;;;;;;;;;;5048506;28;20439;-96
2021/11/05 00:25:03;;;;;;;79.70;17.10;;;;;;;;;;5037592;28;20451;-94
2021/11/05 00:27:31;;;;;;;79.00;17.00;;;;;;;;;;5051109;28;20470;-95
2021/11/05 00:29:57;;;;;;;74.50;16.67;;;;;;;;;;5041512;28;20505;-95
2021/11/05 00:32:25;;;;;;;76.87;18.37;;;;;;;;;;5040217;28;20466;-96
2021/11/05 00:34:54;;;;;;;78.20;16.23;;;;;;;;;;5057273;28;20446;-96
2021/11/05 00:37:20;;;;;;;74.37;17.80;;;;;;;;;;5047164;28;20443;-96
2021/11/05 00:39:46;;;;;;;75.80;16.90;;;;;;;;;;5038741;28;20517;-92
2021/11/05 00:42:13;;;;;;;78.93;17.07;;;;;;;;;;5040332;28;20450;-92
2021/11/05 00:44:48;;;;;;;73.97;16.27;;;;;;;;;;5046679;28;20443;-96
2021/11/05 00:58:56;;;;;;;76.00;16.30;;;;;;;;;;5049333;28;20505;-96
2021/11/05 01:04:23;;;;;;;74.80;16.50;;;;;;;;;;5363569;22;20531;-96
2021/11/05 01:09:30;;;;;;;76.17;16.27;;;;;;;;;;5224532;22;20481;-96
2021/11/05 01:17:19;;;;;;;74.43;15.60;;;;;;;;;;5151785;22;20549;-96
2021/11/05 01:19:51;;;;;;;76.70;15.50;;;;;;;;;;5058774;28;20475;-96
2021/11/05 01:27:56;;;;;;;72.97;15.33;;;;;;;;;;5076319;22;20249;-96
2021/11/05 01:30:22;;;;;;;77.13;15.93;;;;;;;;;;5067073;28;20446;-96
2021/11/05 01:35:49;;;;;;;71.80;15.23;;;;;;;;;;5090936;22;20482;-96
2021/11/05 01:38:22;;;;;;;75.30;14.93;;;;;;;;;;5073646;22;20457;-96
2021/11/05 01:40:56;;;;;;;75.13;15.83;;;;;;;;;;5022307;28;20488;-96
2021/11/05 01:43:24;;;;;;;73.27;15.10;;;;;;;;;;5020832;28;20429;-96
2021/11/05 01:45:53;;;;;;;72.97;15.53;;;;;;;;;;5014297;28;20483;-96
2021/11/05 01:48:19;;;;;;;72.00;15.90;;;;;;;;;;5013438;28;20520;-95
2021/11/05 01:50:52;;;;;;;73.10;14.10;;;;;;;;;;5010704;28;20440;-96
2021/11/05 01:53:19;;;;;;;73.37;16.13;;;;;;;;;;5058651;22;20496;-96
2021/11/05 01:58:58;;;;;;;73.27;15.07;;;;;;;;;;5211055;22;20498;-96
2021/11/05 02:01:25;;;;;;;72.00;15.37;;;;;;;;;;5052549;28;20489;-96
2021/11/05 02:03:54;;;;;;;75.63;15.97;;;;;;;;;;5049911;28;20446;-96
2021/11/05 02:09:02;;;;;;;71.90;15.00;;;;;;;;;;4926517;22;20482;-96
2021/11/05 02:14:33;;;;;;;72.33;15.50;;;;;;;;;;5629326;22;20497;-96
2021/11/05 02:17:01;;;;;;;70.70;15.07;;;;;;;;;;5153295;22;20515;-97
2021/11/05 02:19:28;;;;;;;74.93;16.37;;;;;;;;;;5069831;28;20442;-94
2021/11/05 02:21:58;;;;;;;76.33;16.30;;;;;;;;;;5077111;28;20457;-96
2021/11/05 02:24:25;;;;;;;74.67;16.67;;;;;;;;;;5071170;28;20465;-95
2021/11/05 02:26:53;;;;;;;73.87;16.20;;;;;;;;;;5068439;28;20445;-95
2021/11/05 02:29:26;;;;;;;72.87;14.90;;;;;;;;;;5075244;28;20443;-96
2021/11/05 02:31:53;;;;;;;74.47;16.67;;;;;;;;;;5196419;22;20496;-95
2021/11/05 02:34:19;;;;;;;77.40;15.90;;;;;;;;;;5280603;22;20499;-96
2021/11/05 02:47:49;;;;;;;77.43;15.10;;;;;;;;;;5114153;22;20505;-96
2021/11/05 02:50:30;;;;;;;79.30;15.50;;;;;;;;;;5066942;28;20542;-97
2021/11/05 02:53:04;;;;;;;73.17;15.50;;;;;;;;;;5067206;28;20434;-96
2021/11/05 02:56:02;;;;;;;74.70;14.73;;;;;;;;;;5073827;28;20454;-97
2021/11/05 02:58:29;;;;;;;74.03;15.20;;;;;;;;;;5050626;28;20966;-96
2021/11/05 03:00:56;;;;;;;77.47;15.50;;;;;;;;;;5067008;28;20535;-96
2021/11/05 03:03:28;;;;;;;74.03;15.00;;;;;;;;;;5068506;28;20457;-96
2021/11/05 03:14:03;;;;;;;74.33;15.60;;;;;;;;;;5073995;22;20495;-95
2021/11/05 03:16:32;;;;;;;75.80;15.00;;;;;;;;;;5054416;28;20454;-96
2021/11/05 03:19:01;;;;;;;75.00;15.80;;;;;;;;;;5051710;28;20468;-95
2021/11/05 03:21:27;;;;;;;80.03;15.80;;;;;;;;;;5055842;28;20482;-95
2021/11/05 03:23:54;;;;;;;75.10;15.00;;;;;;;;;;5199626;22;20520;-93
2021/11/05 03:26:32;;;;;;;74.07;16.33;;;;;;;;;;5052146;28;20430;-96
2021/11/05 03:28:59;;;;;;;79.03;16.60;;;;;;;;;;5057951;28;20428;-96
2021/11/05 03:31:25;;;;;;;77.83;16.23;;;;;;;;;;5052223;28;20443;-96
2021/11/05 03:33:54;;;;;;;73.33;14.67;;;;;;;;;;5069680;22;20517;-96
2021/11/05 03:36:46;;;;;;;77.70;15.40;;;;;;;;;;5068637;28;20430;-96
2021/11/05 03:39:14;;;;;;;74.10;16.67;;;;;;;;;;5065335;28;21114;-96
2021/11/05 03:41:41;;;;;;;76.17;16.20;;;;;;;;;;5066599;28;20473;-96
2021/11/05 03:44:07;;;;;;;79.37;17.30;;;;;;;;;;5063965;28;20442;-96
2021/11/05 03:46:34;;;;;;;75.67;15.47;;;;;;;;;;5064267;28;20449;-96
2021/11/05 03:49:01;;;;;;;73.77;15.90;;;;;;;;;;5061098;28;20474;-96
2021/11/05 03:56:48;;;;;;;76.30;16.47;;;;;;;;;;5030074;28;20487;-96
2021/11/05 03:59:15;;;;;;;78.17;17.10;;;;;;;;;;5050285;28;20474;-96
2021/11/05 04:01:42;;;;;;;71.83;15.57;;;;;;;;;;5057447;28;20490;-96
2021/11/05 04:15:30;;;;;;;76.27;15.87;;;;;;;;;;5061599;28;20417;-96
2021/11/05 04:29:06;;;;;;;75.27;16.00;;;;;;;;;;5299231;22;20490;-96
2021/11/05 04:37:43;;;;;;;80.87;16.77;;;;;;;;;;5052824;28;20455;-96
2021/11/05 04:43:50;;;;;;;79.20;20.07;;;;;;;;;;6023894;22;20412;-97
2021/11/05 04:46:42;;;;;;;77.67;16.37;;;;;;;;;;5058965;28;20431;-96
2021/11/05 04:58:17;;;;;;;82.97;19.67;;;;;;;;;;5014680;22;20582;-96
2021/11/05 05:00:44;;;;;;;80.23;18.10;;;;;;;;;;5059971;28;20487;-96
2021/11/05 05:17:12;;;;;;;82.57;19.10;;;;;;;;;;3716287;22;20477;-96
2021/11/05 05:40:31;;;;;;;89.63;22.03;;;;;;;;;;5574950;22;20465;-96
2021/11/05 05:48:45;;;;;;;80.77;17.90;;;;;;;;;;5057191;28;20466;-96
2021/11/05 05:51:18;;;;;;;84.93;19.07;;;;;;;;;;5281882;22;20490;-96
2021/11/05 05:53:44;;;;;;;82.10;20.27;;;;;;;;;;5121988;22;20530;-96
2021/11/05 05:58:55;;;;;;;83.33;17.47;;;;;;;;;;5035101;28;20486;-95
2021/11/05 06:01:21;;;;;;;79.07;18.27;;;;;;;;;;5030967;28;20479;-96
2021/11/05 06:03:48;;;;;;;79.27;17.67;;;;;;;;;;5031454;28;20437;-96
2021/11/05 06:06:14;;;;;;;75.03;17.60;;;;;;;;;;5034651;28;20462;-95
2021/11/05 06:11:17;;;;;;;78.87;18.27;;;;;;;;;;4992415;26;20584;-94
2021/11/05 06:13:44;;;;;;;74.27;17.10;;;;;;;;;;5070327;28;21004;-95
2021/11/05 06:16:10;;;;;;;76.63;17.63;;;;;;;;;;5071000;28;20446;-93
2021/11/05 06:18:37;;;;;;;77.27;17.50;;;;;;;;;;5071179;28;20471;-96
2021/11/05 06:21:05;;;;;;;75.47;16.73;;;;;;;;;;5076336;28;20453;-96
2021/11/05 06:23:31;;;;;;;81.43;17.60;;;;;;;;;;5079083;28;20429;-96
2021/11/05 06:25:58;;;;;;;74.47;16.43;;;;;;;;;;5074927;28;20471;-96
2021/11/05 06:28:30;;;;;;;76.93;16.93;;;;;;;;;;5241121;22;20489;-96
2021/11/05 06:30:57;;;;;;;75.60;17.27;;;;;;;;;;5067067;28;20514;-96
2021/11/05 06:36:05;;;;;;;78.17;19.27;;;;;;;;;;5062599;22;20470;-96
2021/11/05 06:38:32;;;;;;;80.20;17.17;;;;;;;;;;5220464;22;20573;-94
2021/11/05 06:40:59;;;;;;;85.33;18.40;;;;;;;;;;5053932;28;20513;-96
2021/11/05 06:43:26;;;;;;;81.60;18.30;;;;;;;;;;5053282;28;20447;-96
2021/11/05 06:48:31;;;;;;;75.67;16.90;;;;;;;;;;5236443;22;20554;-96
2021/11/05 06:50:59;;;;;;;77.03;17.10;;;;;;;;;;5054983;28;20445;-96
2021/11/05 06:53:25;;;;;;;76.10;17.40;;;;;;;;;;5054645;28;20455;-93
2021/11/05 06:55:52;;;;;;;77.27;17.20;;;;;;;;;;5052374;28;20443;-92
2021/11/05 06:58:19;;;;;;;76.63;16.00;;;;;;;;;;5051138;28;20492;-94
2021/11/05 07:00:49;;;;;;;77.90;17.70;;;;;;;;;;5051770;28;20442;-95
2021/11/05 07:03:17;;;;;;;74.57;16.03;;;;;;;;;;5053725;28;20462;-96
2021/11/05 07:05:44;;;;;;;75.63;16.60;;;;;;;;;;5057822;28;20454;-94
2021/11/05 07:08:13;;;;;;;73.03;16.70;;;;;;;;;;5055306;28;20492;-94
2021/11/05 07:10:39;;;;;;;75.70;16.17;;;;;;;;;;5052527;28;20503;-94
2021/11/05 07:13:08;;;;;;;79.20;16.13;;;;;;;;;;5055042;28;20468;-96
2021/11/05 07:15:51;;;;;;;76.47;15.70;;;;;;;;;;5055273;28;20442;-96
2021/11/05 07:18:19;;;;;;;75.37;16.03;;;;;;;;;;5054516;28;20528;-95
2021/11/05 07:20:46;;;;;;;72.50;15.43;;;;;;;;;;5051390;28;20521;-95
2021/11/05 07:23:14;;;;;;;73.70;15.27;;;;;;;;;;5053560;28;20482;-95
2021/11/05 07:25:45;;;;;;;73.33;15.77;;;;;;;;;;5054688;28;20465;-96
2021/11/05 07:28:12;;;;;;;72.43;15.47;;;;;;;;;;5066270;22;20628;-96
2021/11/05 07:30:39;;;;;;;70.30;14.53;;;;;;;;;;5054622;28;20900;-96
2021/11/05 07:33:07;;;;;;;72.07;14.90;;;;;;;;;;5056343;28;20553;-96
2021/11/05 07:35:35;;;;;;;74.77;15.20;;;;;;;;;;5049280;28;20451;-95
2021/11/05 07:38:02;;;;;;;75.93;15.87;;;;;;;;;;5046388;28;20439;-94
2021/11/05 07:40:31;;;;;;;71.43;15.33;;;;;;;;;;5046688;28;20451;-95
2021/11/05 07:42:58;;;;;;;73.33;15.47;;;;;;;;;;5050732;28;20490;-95
2021/11/05 07:45:25;;;;;;;75.30;14.33;;;;;;;;;;5051365;28;20439;-92
2021/11/05 07:47:55;;;;;;;75.27;18.07;;;;;;;;;;5052940;28;20686;-94
2021/11/05 07:50:22;;;;;;;76.37;14.67;;;;;;;;;;5051604;28;20463;-95
2021/11/05 07:52:50;;;;;;;72.87;15.90;;;;;;;;;;5055233;28;20455;-96
2021/11/05 07:55:17;;;;;;;74.77;15.30;;;;;;;;;;5048917;28;20445;-93
2021/11/05 07:57:44;;;;;;;76.17;13.93;;;;;;;;;;5053079;28;21800;-96
2021/11/05 08:00:13;;;;;;;75.03;15.50;;;;;;;;;;5059733;28;20488;-96
2021/11/05 08:02:40;;;;;;;74.63;15.30;;;;;;;;;;5055426;28;20514;-95
2021/11/05 08:05:11;;;;;;;71.00;15.60;;;;;;;;;;5056116;28;20436;-96
2021/11/05 08:07:42;;;;;;;70.13;15.03;;;;;;;;;;5066486;28;20415;-96
2021/11/05 08:12:35;;;;;;;71.77;15.47;;;;;;;;;;5066484;22;20480;-96
2021/11/05 08:15:02;;;;;;;77.17;15.20;;;;;;;;;;5055994;28;20449;-96
2021/11/05 08:17:28;;;;;;;74.00;15.20;;;;;;;;;;5057651;28;20463;-95
2021/11/05 08:19:55;;;;;;;77.67;15.27;;;;;;;;;;5055985;28;20867;-93
2021/11/05 08:22:21;;;;;;;69.97;15.17;;;;;;;;;;5057276;28;20528;-96
2021/11/05 08:24:53;;;;;;;74.10;14.53;;;;;;;;;;5062333;28;20467;-94
2021/11/05 08:30:20;;;;;;;75.90;15.13;;;;;;;;;;5027779;28;20471;-96
2021/11/05 08:32:47;;;;;;;74.60;15.50;;;;;;;;;;5032878;28;20449;-95
2021/11/05 08:35:14;;;;;;;73.43;15.93;;;;;;;;;;5031069;28;20477;-96
2021/11/05 08:37:42;;;;;;;74.00;14.60;;;;;;;;;;5035730;28;20445;-96
2021/11/05 08:40:09;;;;;;;71.63;15.40;;;;;;;;;;5032096;28;20473;-96
2021/11/05 08:42:36;;;;;;;71.83;15.13;;;;;;;;;;5032783;28;20493;-94
2021/11/05 08:45:06;;;;;;;79.00;16.20;;;;;;;;;;5029291;28;20504;-96
2021/11/05 08:47:43;;;;;;;71.70;15.83;;;;;;;;;;5035121;28;20473;-95
2021/11/05 08:50:11;;;;;;;70.60;15.00;;;;;;;;;;5036383;28;20438;-96
2021/11/05 08:52:38;;;;;;;73.90;15.60;;;;;;;;;;5031751;28;20465;-96
2021/11/05 08:55:07;;;;;;;71.60;15.13;;;;;;;;;;5032706;28;21142;-96
2021/11/05 08:57:36;;;;;;;72.17;16.17;;;;;;;;;;5031078;28;20447;-96
2021/11/05 09:00:04;;;;;;;70.37;16.00;;;;;;;;;;5032350;28;20455;-95
2021/11/05 09:02:33;;;;;;;77.63;15.80;;;;;;;;;;5034741;28;20497;-96
2021/11/05 09:05:01;;;;;;;74.27;16.03;;;;;;;;;;5031744;28;20521;-96
2021/11/05 09:07:32;;;;;;;76.77;16.10;;;;;;;;;;5030609;28;20446;-96
2021/11/05 09:10:02;;;;;;;76.50;16.80;;;;;;;;;;5035742;28;20448;-96
2021/11/05 09:12:29;;;;;;;72.23;15.43;;;;;;;;;;5033874;28;20430;-95
2021/11/05 09:14:55;;;;;;;76.53;17.00;;;;;;;;;;5030980;28;20441;-96
2021/11/05 09:17:22;;;;;;;70.23;14.97;;;;;;;;;;5028316;28;20451;-96
2021/11/05 09:19:48;;;;;;;72.33;15.90;;;;;;;;;;5028557;28;20435;-95
2021/11/05 09:22:16;;;;;;;77.07;16.03;;;;;;;;;;5029197;28;20552;-95
2021/11/05 09:24:43;;;;;;;73.70;16.23;;;;;;;;;;5030292;28;20479;-95
2021/11/05 09:27:10;;;;;;;71.67;15.57;;;;;;;;;;5031574;28;20946;-96
2021/11/05 09:29:39;;;;;;;75.10;16.10;;;;;;;;;;5031095;28;20479;-96
2021/11/05 09:32:06;;;;;;;75.13;15.27;;;;;;;;;;5034587;28;20453;-96
2021/11/05 09:34:33;;;;;;;76.03;15.63;;;;;;;;;;5027929;28;20440;-95
2021/11/05 09:37:08;;;;;;;70.37;16.10;;;;;;;;;;5030004;28;20504;-94
2021/11/05 09:39:36;;;;;;;73.50;16.37;;;;;;;;;;5028930;28;20451;-95
2021/11/05 09:42:02;;;;;;;77.27;16.17;;;;;;;;;;5028673;28;20491;-96
2021/11/05 09:44:29;;;;;;;71.60;16.40;;;;;;;;;;5028560;28;20478;-96
2021/11/05 09:47:00;;;;;;;80.23;15.07;;;;;;;;;;5028371;28;21160;-95
2021/11/05 09:49:27;;;;;;;74.90;15.90;;;;;;;;;;5029124;28;20483;-95
2021/11/05 09:51:55;;;;;;;74.47;15.13;;;;;;;;;;5029322;28;20443;-96
2021/11/05 09:54:22;;;;;;;73.23;15.80;;;;;;;;;;5029010;28;20450;-94
2021/11/05 09:56:51;;;;;;;73.30;14.97;;;;;;;;;;5028478;28;20452;-96
2021/11/05 09:59:17;;;;;;;73.50;15.73;;;;;;;;;;5028379;28;20463;-95
2021/11/05 10:01:45;;;;;;;71.27;15.23;;;;;;;;;;5028881;28;20486;-95
2021/11/05 10:04:12;;;;;;;71.90;15.20;;;;;;;;;;5028375;28;20515;-96
2021/11/05 10:06:39;;;;;;;73.07;15.17;;;;;;;;;;5023407;28;20454;-95
2021/11/05 10:09:14;;;;;;;72.77;14.87;;;;;;;;;;5026235;28;20455;-94
2021/11/05 10:11:41;;;;;;;81.00;15.80;;;;;;;;;;5026371;28;21290;-95
2021/11/05 10:14:17;;;;;;;71.60;15.50;;;;;;;;;;5028650;28;20451;-94
2021/11/05 10:16:57;;;;;;;72.23;16.13;;;;;;;;;;5029400;28;20446;-96
2021/11/05 10:19:24;;;;;;;72.10;15.93;;;;;;;;;;5029012;28;20444;-94
2021/11/05 10:21:51;;;;;;;78.90;17.00;;;;;;;;;;5033791;28;20487;-96
2021/11/05 10:24:18;;;;;;;79.20;16.20;;;;;;;;;;5029802;28;20515;-95
2021/11/05 10:26:45;;;;;;;77.50;17.53;;;;;;;;;;5028589;28;20478;-94
2021/11/05 10:29:26;;;;;;;74.17;16.33;;;;;;;;;;5023747;28;20483;-94
2021/11/05 10:32:00;;;;;;;74.20;15.67;;;;;;;;;;5029237;28;20978;-94
2021/11/05 10:34:27;;;;;;;71.53;15.40;;;;;;;;;;5027566;28;20446;-95
2021/11/05 10:36:53;;;;;;;72.87;14.87;;;;;;;;;;5027539;28;20455;-96
2021/11/05 10:39:20;;;;;;;70.43;15.03;;;;;;;;;;5048112;22;20483;-96
2021/11/05 10:41:56;;;;;;;70.90;13.83;;;;;;;;;;5050870;28;20967;-96
2021/11/05 10:44:24;;;;;;;74.23;15.93;;;;;;;;;;5050356;28;20449;-95
2021/11/05 10:47:14;;;;;;;73.70;15.27;;;;;;;;;;5053809;28;20474;-96
2021/11/05 10:52:23;;;;;;;74.17;15.37;;;;;;;;;;5054735;28;20422;-96
2021/11/05 10:54:53;;;;;;;70.50;14.10;;;;;;;;;;5054318;28;20431;-96
2021/11/05 10:57:35;;;;;;;74.43;15.43;;;;;;;;;;5053501;28;20442;-96
2021/11/05 11:00:19;;;;;;;73.53;14.37;;;;;;;;;;5052452;28;20430;-96
2021/11/05 11:02:47;;;;;;;74.23;16.57;;;;;;;;;;5058463;22;20490;-94
2021/11/05 11:05:28;;;;;;;77.60;15.43;;;;;;;;;;5043482;28;20449;-96
2021/11/05 11:07:56;;;;;;;71.70;14.80;;;;;;;;;;5047050;28;20446;-95
2021/11/05 11:10:32;;;;;;;73.40;15.20;;;;;;;;;;5052274;28;20450;-96
2021/11/05 11:13:00;;;;;;;77.67;14.87;;;;;;;;;;5055805;28;20441;-96
2021/11/05 11:15:41;;;;;;;77.97;16.63;;;;;;;;;;5054206;28;20533;-94
2021/11/05 11:18:14;;;;;;;73.47;14.40;;;;;;;;;;5050130;28;20430;-96
2021/11/05 11:20:42;;;;;;;75.10;15.00;;;;;;;;;;5055558;28;20438;-95
2021/11/05 11:23:09;;;;;;;76.63;15.47;;;;;;;;;;5055853;28;20560;-96
2021/11/05 11:25:38;;;;;;;75.23;16.50;;;;;;;;;;5053422;28;20451;-96
2021/11/05 11:28:05;;;;;;;77.77;14.97;;;;;;;;;;5053274;28;20462;-96
2021/11/05 11:30:32;;;;;;;69.87;15.37;;;;;;;;;;5053202;28;20502;-93
2021/11/05 11:32:59;;;;;;;73.60;15.40;;;;;;;;;;5053405;28;20509;-91
2021/11/05 11:35:27;;;;;;;75.60;15.63;;;;;;;;;;5051322;28;20501;-96
2021/11/05 11:37:53;;;;;;;73.50;16.13;;;;;;;;;;5052720;28;20447;-96
2021/11/05 11:40:20;;;;;;;77.33;15.63;;;;;;;;;;5053419;28;20435;-92
2021/11/05 11:43:02;;;;;;;78.10;15.80;;;;;;;;;;5052807;28;20485;-94
2021/11/05 11:45:28;;;;;;;74.27;16.97;;;;;;;;;;5054682;28;20464;-95
2021/11/05 11:47:59;;;;;;;72.53;15.13;;;;;;;;;;5054640;28;20447;-95
2021/11/05 11:50:29;;;;;;;78.90;14.77;;;;;;;;;;5051821;28;20458;-95
2021/11/05 11:53:00;;;;;;;72.50;14.23;;;;;;;;;;5054027;28;21959;-96
2021/11/05 11:55:27;;;;;;;71.73;14.70;;;;;;;;;;5052782;28;20434;-93
2021/11/05 11:58:20;;;;;;;74.40;15.50;;;;;;;;;;5054290;28;20485;-95
2021/11/05 12:00:48;;;;;;;76.90;14.90;;;;;;;;;;5051298;28;20518;-96
2021/11/05 12:03:16;;;;;;;74.70;14.90;;;;;;;;;;5051779;28;20505;-96
2021/11/05 12:05:44;;;;;;;73.27;15.30;;;;;;;;;;5052226;28;20470;-92
2021/11/05 12:08:18;;;;;;;72.60;14.80;;;;;;;;;;5052048;28;20442;-93
2021/11/05 12:10:46;;;;;;;75.87;15.50;;;;;;;;;;5052081;28;20454;-92
2021/11/05 12:13:31;;;;;;;76.30;16.00;;;;;;;;;;5049857;28;20449;-96
2021/11/05 12:16:18;;;;;;;72.03;14.30;;;;;;;;;;5051540;28;20460;-96
2021/11/05 12:19:03;;;;;;;75.53;15.03;;;;;;;;;;5050875;28;20463;-95
2021/11/05 12:21:34;;;;;;;72.73;14.90;;;;;;;;;;5042849;28;20509;-94
2021/11/05 12:24:19;;;;;;;71.40;14.40;;;;;;;;;;5052893;28;20597;-96
2021/11/05 12:26:47;;;;;;;72.73;15.50;;;;;;;;;;5053132;28;21011;-96
2021/11/05 12:29:41;;;;;;;79.27;15.23;;;;;;;;;;5052989;28;20435;-95
2021/11/05 12:32:23;;;;;;;72.57;14.87;;;;;;;;;;5053186;28;20452;-94
2021/11/05 12:34:51;;;;;;;83.53;15.10;;;;;;;;;;5051966;28;20445;-96
2021/11/05 12:37:30;;;;;;;70.80;14.70;;;;;;;;;;5049931;28;20489;-95
2021/11/05 12:40:17;;;;;;;72.90;14.50;;;;;;;;;;5052382;28;21297;-96
2021/11/05 12:42:44;;;;;;;72.50;15.30;;;;;;;;;;5052604;28;21198;-94
2021/11/05 12:45:12;;;;;;;73.50;15.03;;;;;;;;;;5056325;28;20435;-93
2021/11/05 12:47:49;;;;;;;71.07;14.80;;;;;;;;;;5054671;28;20446;-95
2021/11/05 12:50:20;;;;;;;71.50;15.50;;;;;;;;;;5057327;28;20438;-96
2021/11/05 12:52:57;;;;;;;74.13;16.40;;;;;;;;;;5053892;28;20467;-95
2021/11/05 12:55:28;;;;;;;76.43;15.23;;;;;;;;;;5052035;28;21464;-96
2021/11/05 12:58:00;;;;;;;73.50;16.33;;;;;;;;;;5056119;28;20528;-96
2021/11/05 13:00:29;;;;;;;82.77;15.87;;;;;;;;;;5051527;28;20458;-93
2021/11/05 13:02:57;;;;;;;74.67;16.03;;;;;;;;;;5047402;28;20492;-92
2021/11/05 13:05:24;;;;;;;72.77;15.50;;;;;;;;;;5058025;28;20442;-93
2021/11/05 13:07:55;;;;;;;72.07;16.33;;;;;;;;;;5051264;28;20446;-93
2021/11/05 13:10:24;;;;;;;82.67;15.30;;;;;;;;;;5047558;28;20451;-93
2021/11/05 13:12:55;;;;;;;78.53;14.63;;;;;;;;;;5047596;28;20448;-96
2021/11/05 13:15:24;;;;;;;74.20;15.23;;;;;;;;;;5051265;28;20442;-95
2021/11/05 13:17:51;;;;;;;73.03;15.10;;;;;;;;;;5052879;28;20450;-96
2021/11/05 13:20:19;;;;;;;70.57;15.47;;;;;;;;;;5050648;28;20444;-96
2021/11/05 13:22:53;;;;;;;76.10;15.63;;;;;;;;;;5050679;28;20447;-95
2021/11/05 13:25:21;;;;;;;75.50;15.83;;;;;;;;;;5048019;28;20442;-96
2021/11/05 13:27:49;;;;;;;76.87;16.73;;;;;;;;;;5046831;28;20471;-94
2021/11/05 13:30:16;;;;;;;70.33;15.30;;;;;;;;;;5049628;28;20447;-96
2021/11/05 13:32:46;;;;;;;78.23;16.30;;;;;;;;;;5048004;28;20482;-93
2021/11/05 13:35:12;;;;;;;74.67;14.30;;;;;;;;;;5050319;28;20445;-95
2021/11/05 13:37:39;;;;;;;82.27;15.17;;;;;;;;;;5049498;28;21051;-93
2021/11/05 13:40:06;;;;;;;67.37;14.77;;;;;;;;;;5049132;28;20451;-94
2021/11/05 13:42:32;;;;;;;70.90;14.23;;;;;;;;;;5048339;28;20488;-93
2021/11/05 13:45:04;;;;;;;72.07;14.70;;;;;;;;;;5049233;28;20444;-94
2021/11/05 13:50:14;;;;;;;80.87;14.50;;;;;;;;;;5048693;28;20438;-93
2021/11/05 13:52:53;;;;;;;72.67;16.33;;;;;;;;;;5048390;28;20754;-96
2021/11/05 13:55:30;;;;;;;76.70;15.07;;;;;;;;;;5047425;28;20476;-92
2021/11/05 13:58:01;;;;;;;77.07;14.87;;;;;;;;;;5049050;28;20451;-96
2021/11/05 14:00:36;;;;;;;72.37;13.90;;;;;;;;;;5051209;28;20446;-96
2021/11/05 14:03:03;;;;;;;76.07;14.23;;;;;;;;;;5048081;28;20496;-95
2021/11/05 14:05:31;;;;;;;74.47;15.30;;;;;;;;;;5046899;28;20500;-94
2021/11/05 14:08:05;;;;;;;71.83;14.40;;;;;;;;;;5057159;28;20418;-95
2021/11/05 14:10:41;;;;;;;82.80;15.00;;;;;;;;;;5050590;28;20457;-96
2021/11/05 14:13:15;;;;;;;76.93;15.70;;;;;;;;;;5052993;28;20461;-96
2021/11/05 14:15:41;;;;;;;75.27;15.50;;;;;;;;;;5050613;28;20442;-95
2021/11/05 14:18:30;;;;;;;77.20;14.60;;;;;;;;;;5053490;28;20438;-93
2021/11/05 14:21:17;;;;;;;72.80;15.60;;;;;;;;;;5052391;28;20455;-96
2021/11/05 14:23:46;;;;;;;75.70;14.97;;;;;;;;;;5053288;28;20493;-96
2021/11/05 14:26:35;;;;;;;72.43;15.13;;;;;;;;;;5054614;28;20495;-97
2021/11/05 14:55:41;;;;;;;72.13;14.43;;;;;;;;;;5123632;27;1323207;-95
2021/11/05 14:58:12;;;;;;;76.20;14.73;;;;;;;;;;5147450;27;20200;-94
2021/11/05 15:00:39;;;;;;;75.67;14.40;;;;;;;;;;5143995;27;20450;-95
2021/11/05 15:03:16;;;;;;;73.30;15.20;;;;;;;;;;5145238;27;20464;-95
2021/11/05 15:05:48;;;;;;;76.47;14.80;;;;;;;;;;5147036;27;20440;-96
2021/11/05 15:08:14;;;;;;;75.10;13.87;;;;;;;;;;5146127;27;20505;-95
2021/11/05 15:10:43;;;;;;;71.50;14.10;;;;;;;;;;5144713;27;20442;-93
2021/11/05 15:13:11;;;;;;;74.57;15.20;;;;;;;;;;5145603;27;20452;-93
2021/11/05 15:15:38;;;;;;;70.50;14.70;;;;;;;;;;5146069;27;20533;-93
2021/11/05 15:18:05;;;;;;;72.80;14.70;;;;;;;;;;5145737;27;20440;-94
2021/11/05 15:20:32;;;;;;;71.20;14.33;;;;;;;;;;5147055;27;21107;-95
2021/11/05 15:22:59;;;;;;;79.57;14.90;;;;;;;;;;5147111;27;20462;-92
2021/11/05 15:25:28;;;;;;;74.50;15.00;;;;;;;;;;5144250;27;20450;-91
2021/11/05 15:27:57;;;;;;;74.60;15.27;;;;;;;;;;5143627;27;20442;-94
2021/11/05 15:30:25;;;;;;;79.53;13.97;;;;;;;;;;5145987;27;20450;-92
2021/11/05 15:32:52;;;;;;;72.40;14.33;;;;;;;;;;5146336;27;20491;-93
2021/11/05 15:35:18;;;;;;;70.57;15.00;;;;;;;;;;5145671;27;20895;-90
2021/11/05 15:37:45;;;;;;;75.47;15.13;;;;;;;;;;5145980;27;21030;-92
2021/11/05 15:40:13;;;;;;;72.60;15.40;;;;;;;;;;5146551;27;20448;-93
2021/11/05 15:42:41;;;;;;;77.40;15.00;;;;;;;;;;5146241;27;20568;-90
2021/11/05 15:45:09;;;;;;;79.50;15.47;;;;;;;;;;5145538;27;20443;-90
2021/11/05 15:47:36;;;;;;;73.13;14.63;;;;;;;;;;5144852;27;20798;-89
2021/11/05 15:50:05;;;;;;;72.67;15.43;;;;;;;;;;5146519;27;20497;-96
2021/11/05 15:52:31;;;;;;;76.87;15.47;;;;;;;;;;5147923;27;20504;-96
2021/11/05 15:54:58;;;;;;;69.70;14.27;;;;;;;;;;5147576;27;20503;-96
2021/11/05 15:57:26;;;;;;;73.57;15.60;;;;;;;;;;5146021;27;20432;-96
2021/11/05 15:59:53;;;;;;;74.13;13.97;;;;;;;;;;5128545;27;20450;-96
2021/11/05 16:02:21;;;;;;;72.90;15.47;;;;;;;;;;5145994;27;20441;-96
2021/11/05 16:04:49;;;;;;;75.40;15.10;;;;;;;;;;5145412;27;20418;-96
2021/11/05 16:07:16;;;;;;;72.60;15.57;;;;;;;;;;5134308;27;20471;-96
2021/11/05 16:09:48;;;;;;;75.57;15.33;;;;;;;;;;5136340;27;20433;-96
2021/11/05 16:12:15;;;;;;;71.27;15.47;;;;;;;;;;5142732;27;20448;-94
2021/11/05 16:14:42;;;;;;;74.53;16.93;;;;;;;;;;5133893;27;20488;-96
2021/11/05 16:17:09;;;;;;;72.90;16.77;;;;;;;;;;5127158;27;20480;-94
2021/11/05 16:19:37;;;;;;;76.13;15.90;;;;;;;;;;5130452;27;20429;-96
2021/11/05 16:22:09;;;;;;;74.17;15.30;;;;;;;;;;5127125;22;20525;-96
2021/11/05 16:24:46;;;;;;;80.40;16.00;;;;;;;;;;5070741;28;20481;-96
2021/11/05 16:27:14;;;;;;;74.70;16.10;;;;;;;;;;5060073;28;20452;-96
2021/11/05 16:29:41;;;;;;;73.53;16.50;;;;;;;;;;5060416;28;20455;-94
2021/11/05 16:32:08;;;;;;;73.60;15.67;;;;;;;;;;5062756;28;20459;-96
2021/11/05 16:34:34;;;;;;;73.40;16.20;;;;;;;;;;5065918;28;20487;-96
2021/11/05 16:37:02;;;;;;;77.30;17.10;;;;;;;;;;5063446;28;20996;-95
2021/11/05 16:39:29;;;;;;;73.73;15.70;;;;;;;;;;5066469;28;20463;-96
2021/11/05 16:42:07;;;;;;;72.10;15.20;;;;;;;;;;5068648;28;20471;-96
2021/11/05 16:44:34;;;;;;;72.63;15.27;;;;;;;;;;5068438;28;21126;-95
2021/11/05 16:47:01;;;;;;;70.73;16.50;;;;;;;;;;5061455;28;20453;-96
2021/11/05 16:49:28;;;;;;;73.90;16.27;;;;;;;;;;5061154;28;20439;-95
2021/11/05 16:51:55;;;;;;;73.67;15.20;;;;;;;;;;5060419;28;20457;-96
2021/11/05 16:54:23;;;;;;;72.60;14.97;;;;;;;;;;5059540;28;20549;-96
2021/11/05 16:56:50;;;;;;;78.67;18.00;;;;;;;;;;5059827;28;20434;-95
2021/11/05 16:59:16;;;;;;;88.50;18.37;;;;;;;;;;5058879;28;20450;-96
2021/11/05 17:01:43;;;;;;;76.50;18.40;;;;;;;;;;5058675;28;21177;-95
2021/11/05 17:04:10;;;;;;;79.23;18.93;;;;;;;;;;5059096;28;20453;-95
2021/11/05 17:06:37;;;;;;;81.57;18.60;;;;;;;;;;5060125;28;20456;-95
2021/11/05 17:09:04;;;;;;;90.93;19.47;;;;;;;;;;5059839;28;20461;-95
2021/11/05 17:11:32;;;;;;;85.60;18.87;;;;;;;;;;5059177;28;20442;-95
2021/11/05 17:13:59;;;;;;;84.63;19.63;;;;;;;;;;5058737;28;20474;-95
2021/11/05 17:16:26;;;;;;;84.37;18.80;;;;;;;;;;5058733;28;20478;-95
2021/11/05 17:18:52;;;;;;;80.60;20.57;;;;;;;;;;5057959;28;20447;-96
2021/11/05 17:21:20;;;;;;;80.83;18.77;;;;;;;;;;5056593;28;20976;-94
2021/11/05 17:23:48;;;;;;;77.07;16.37;;;;;;;;;;5057715;28;20474;-95
2021/11/05 17:26:14;;;;;;;81.13;17.77;;;;;;;;;;5059734;28;20481;-95
2021/11/05 17:28:43;;;;;;;72.70;15.60;;;;;;;;;;5058821;28;20465;-95
2021/11/05 17:31:10;;;;;;;71.83;16.30;;;;;;;;;;5058717;28;20489;-91
2021/11/05 17:33:37;;;;;;;79.07;15.70;;;;;;;;;;5058734;28;20443;-95
2021/11/05 17:36:04;;;;;;;72.53;15.87;;;;;;;;;;5057488;28;20478;-96
2021/11/05 17:43:48;;;;;;;74.53;15.83;;;;;;;;;;5091568;28;20469;-95
2021/11/05 17:46:15;;;;;;;75.23;14.53;;;;;;;;;;5088156;28;20441;-94
2021/11/05 17:48:42;;;;;;;74.30;15.97;;;;;;;;;;5094528;28;20433;-96
2021/11/05 17:51:12;;;;;;;74.37;16.30;;;;;;;;;;5097890;28;20532;-96
2021/11/05 17:56:22;;;;;;;75.73;16.83;;;;;;;;;;5095062;28;20429;-96
2021/11/05 17:58:51;;;;;;;78.20;15.77;;;;;;;;;;5089239;28;20441;-96